sensor_id;sensor_type;location;lat;lon;timestamp;temperature;humidity
75281;HTU21D;63874;47.230;39.620;2024-01-30T00:00:39;-4.42;77.35
75281;HTU21D;63874;47.230;39.620;2024-01-30T00:03:06;-4.44;77.23
75281;HTU21D;63874;47.230;39.620;2024-01-30T00:05:32;-4.48;77.26
75281;HTU21D;63874;47.230;39.620;2024-01-30T00:07:57;-4.53;77.74
75281;HTU21D;63874;47.230;39.620;2024-01-30T00:10:25;-4.67;77.47
75281;HTU21D;63874;47.230;39.620;2024-01-30T00:12:51;-4.72;77.85
75281;HTU21D;63874;47.230;39.620;2024-01-30T00:15:16;-4.75;78.11
75281;HTU21D;63874;47.230;39.620;2024-01-30T00:17:43;-4.73;78.83
75281;HTU21D;63874;47.230;39.620;2024-01-30T00:20:09;-4.73;79.21
75281;HTU21D;63874;47.230;39.620;2024-01-30T00:22:36;-4.76;79.11
75281;HTU21D;63874;47.230;39.620;2024-01-30T00:25:02;-4.71;80.04
75281;HTU21D;63874;47.230;39.620;2024-01-30T00:27:30;-4.71;80.52
75281;HTU21D;63874;47.230;39.620;2024-01-30T00:29:55;-4.72;80.62
75281;HTU21D;63874;47.230;39.620;2024-01-30T00:32:21;-4.69;81.33
75281;HTU21D;63874;47.230;39.620;2024-01-30T00:34:50;-4.69;81.76
75281;HTU21D;63874;47.230;39.620;2024-01-30T00:37:16;-4.66;82.23
75281;HTU21D;63874;47.230;39.620;2024-01-30T00:39:45;-4.59;82.61
75281;HTU21D;63874;47.230;39.620;2024-01-30T00:42:11;-4.58;82.84
75281;HTU21D;63874;47.230;39.620;2024-01-30T00:44:37;-4.55;83.03
75281;HTU21D;63874;47.230;39.620;2024-01-30T00:47:05;-4.49;83.26
75281;HTU21D;63874;47.230;39.620;2024-01-30T00:49:30;-4.43;83.39
75281;HTU21D;63874;47.230;39.620;2024-01-30T00:51:56;-4.37;83.53
75281;HTU21D;63874;47.230;39.620;2024-01-30T00:54:22;-4.30;83.54
75281;HTU21D;63874;47.230;39.620;2024-01-30T00:56:48;-4.21;83.65
75281;HTU21D;63874;47.230;39.620;2024-01-30T00:59:13;-4.14;83.60
75281;HTU21D;63874;47.230;39.620;2024-01-30T01:01:39;-4.09;83.60
75281;HTU21D;63874;47.230;39.620;2024-01-30T01:04:06;-4.00;83.84
75281;HTU21D;63874;47.230;39.620;2024-01-30T01:06:32;-3.96;83.84
75281;HTU21D;63874;47.230;39.620;2024-01-30T01:08:58;-3.91;83.90
75281;HTU21D;63874;47.230;39.620;2024-01-30T01:11:25;-3.87;83.64
75281;HTU21D;63874;47.230;39.620;2024-01-30T01:13:54;-3.81;83.74
75281;HTU21D;63874;47.230;39.620;2024-01-30T01:16:20;-3.76;83.76
75281;HTU21D;63874;47.230;39.620;2024-01-30T01:18:46;-3.71;83.77
75281;HTU21D;63874;47.230;39.620;2024-01-30T01:21:12;-3.69;83.78
75281;HTU21D;63874;47.230;39.620;2024-01-30T01:23:38;-3.65;83.71
75281;HTU21D;63874;47.230;39.620;2024-01-30T01:26:07;-3.62;83.67
75281;HTU21D;63874;47.230;39.620;2024-01-30T01:28:36;-3.62;83.68
75281;HTU21D;63874;47.230;39.620;2024-01-30T01:31:02;-3.60;83.64
75281;HTU21D;63874;47.230;39.620;2024-01-30T01:33:31;-3.57;83.57
75281;HTU21D;63874;47.230;39.620;2024-01-30T01:35:58;-3.54;83.62
75281;HTU21D;63874;47.230;39.620;2024-01-30T01:38:25;-3.54;83.57
75281;HTU21D;63874;47.230;39.620;2024-01-30T01:40:51;-3.55;83.58
75281;HTU21D;63874;47.230;39.620;2024-01-30T01:43:16;-3.54;83.62
75281;HTU21D;63874;47.230;39.620;2024-01-30T01:45:42;-3.56;83.70
75281;HTU21D;63874;47.230;39.620;2024-01-30T01:48:09;-3.57;83.65
75281;HTU21D;63874;47.230;39.620;2024-01-30T01:50:35;-3.54;83.91
75281;HTU21D;63874;47.230;39.620;2024-01-30T01:53:01;-3.53;83.84
75281;HTU21D;63874;47.230;39.620;2024-01-30T01:55:27;-3.53;84.01
75281;HTU21D;63874;47.230;39.620;2024-01-30T01:57:54;-3.53;83.93
75281;HTU21D;63874;47.230;39.620;2024-01-30T02:00:20;-3.50;84.13
75281;HTU21D;63874;47.230;39.620;2024-01-30T02:02:46;-3.50;84.13
75281;HTU21D;63874;47.230;39.620;2024-01-30T02:05:13;-3.50;84.23
75281;HTU21D;63874;47.230;39.620;2024-01-30T02:07:39;-3.50;84.25
75281;HTU21D;63874;47.230;39.620;2024-01-30T02:10:07;-3.48;84.41
75281;HTU21D;63874;47.230;39.620;2024-01-30T02:12:33;-3.47;84.43
75281;HTU21D;63874;47.230;39.620;2024-01-30T02:15:00;-3.49;84.38
75281;HTU21D;63874;47.230;39.620;2024-01-30T02:17:27;-3.51;84.25
75281;HTU21D;63874;47.230;39.620;2024-01-30T02:19:53;-3.52;84.33
75281;HTU21D;63874;47.230;39.620;2024-01-30T02:22:22;-3.50;84.48
75281;HTU21D;63874;47.230;39.620;2024-01-30T02:24:49;-3.48;84.52
75281;HTU21D;63874;47.230;39.620;2024-01-30T02:27:15;-3.42;84.64
75281;HTU21D;63874;47.230;39.620;2024-01-30T02:29:41;-3.38;84.72
75281;HTU21D;63874;47.230;39.620;2024-01-30T02:32:06;-3.33;84.78
75281;HTU21D;63874;47.230;39.620;2024-01-30T02:34:33;-3.34;84.71
75281;HTU21D;63874;47.230;39.620;2024-01-30T02:37:00;-3.34;84.71
75281;HTU21D;63874;47.230;39.620;2024-01-30T02:39:26;-3.33;84.68
75281;HTU21D;63874;47.230;39.620;2024-01-30T02:41:52;-3.27;84.74
75281;HTU21D;63874;47.230;39.620;2024-01-30T02:44:18;-3.24;84.71
75281;HTU21D;63874;47.230;39.620;2024-01-30T02:46:44;-3.20;84.76
75281;HTU21D;63874;47.230;39.620;2024-01-30T02:49:10;-3.16;84.71
75281;HTU21D;63874;47.230;39.620;2024-01-30T02:51:35;-3.13;84.71
75281;HTU21D;63874;47.230;39.620;2024-01-30T02:54:03;-3.10;84.58
75281;HTU21D;63874;47.230;39.620;2024-01-30T02:56:30;-3.07;84.58
75281;HTU21D;63874;47.230;39.620;2024-01-30T02:58:56;-3.08;84.42
75281;HTU21D;63874;47.230;39.620;2024-01-30T03:01:22;-3.04;84.48
75281;HTU21D;63874;47.230;39.620;2024-01-30T03:03:50;-3.01;84.38
75281;HTU21D;63874;47.230;39.620;2024-01-30T03:06:15;-2.96;84.35
75281;HTU21D;63874;47.230;39.620;2024-01-30T03:08:43;-2.93;84.23
75281;HTU21D;63874;47.230;39.620;2024-01-30T03:11:08;-2.88;84.16
75281;HTU21D;63874;47.230;39.620;2024-01-30T03:13:35;-2.83;84.07
75281;HTU21D;63874;47.230;39.620;2024-01-30T03:16:02;-2.80;83.97
75281;HTU21D;63874;47.230;39.620;2024-01-30T03:18:28;-2.76;83.85
75281;HTU21D;63874;47.230;39.620;2024-01-30T03:20:54;-2.73;83.83
75281;HTU21D;63874;47.230;39.620;2024-01-30T03:23:20;-2.66;83.71
75281;HTU21D;63874;47.230;39.620;2024-01-30T03:25:45;-2.65;83.57
75281;HTU21D;63874;47.230;39.620;2024-01-30T03:28:11;-2.63;83.47
75281;HTU21D;63874;47.230;39.620;2024-01-30T03:30:37;-2.57;83.49
75281;HTU21D;63874;47.230;39.620;2024-01-30T03:33:04;-2.54;83.42
75281;HTU21D;63874;47.230;39.620;2024-01-30T03:35:31;-2.52;83.26
75281;HTU21D;63874;47.230;39.620;2024-01-30T03:37:57;-2.49;83.26
75281;HTU21D;63874;47.230;39.620;2024-01-30T03:40:23;-2.49;83.13
75281;HTU21D;63874;47.230;39.620;2024-01-30T03:42:49;-2.46;83.07
75281;HTU21D;63874;47.230;39.620;2024-01-30T03:45:15;-2.47;83.06
75281;HTU21D;63874;47.230;39.620;2024-01-30T03:47:45;-2.47;83.06
75281;HTU21D;63874;47.230;39.620;2024-01-30T03:50:10;-2.47;83.00
75281;HTU21D;63874;47.230;39.620;2024-01-30T03:52:36;-2.49;83.04
75281;HTU21D;63874;47.230;39.620;2024-01-30T03:55:03;-2.50;83.10
75281;HTU21D;63874;47.230;39.620;2024-01-30T03:57:32;-2.47;83.15
75281;HTU21D;63874;47.230;39.620;2024-01-30T03:59:59;-2.45;83.16
75281;HTU21D;63874;47.230;39.620;2024-01-30T04:02:25;-2.45;83.09
75281;HTU21D;63874;47.230;39.620;2024-01-30T04:04:51;-2.42;83.11
75281;HTU21D;63874;47.230;39.620;2024-01-30T04:07:16;-2.42;82.99
75281;HTU21D;63874;47.230;39.620;2024-01-30T04:09:42;-2.39;83.01
75281;HTU21D;63874;47.230;39.620;2024-01-30T04:12:09;-2.35;82.97
75281;HTU21D;63874;47.230;39.620;2024-01-30T04:14:35;-2.35;82.94
75281;HTU21D;63874;47.230;39.620;2024-01-30T04:17:01;-2.31;82.84
75281;HTU21D;63874;47.230;39.620;2024-01-30T04:19:28;-2.32;82.68
75281;HTU21D;63874;47.230;39.620;2024-01-30T04:21:54;-2.33;82.62
75281;HTU21D;63874;47.230;39.620;2024-01-30T04:24:19;-2.31;82.62
75281;HTU21D;63874;47.230;39.620;2024-01-30T04:26:45;-2.32;82.61
75281;HTU21D;63874;47.230;39.620;2024-01-30T04:29:11;-2.30;82.65
75281;HTU21D;63874;47.230;39.620;2024-01-30T04:31:37;-2.29;82.56
75281;HTU21D;63874;47.230;39.620;2024-01-30T04:34:04;-2.31;82.45
75281;HTU21D;63874;47.230;39.620;2024-01-30T04:36:30;-2.32;82.49
75281;HTU21D;63874;47.230;39.620;2024-01-30T04:38:56;-2.33;82.47
75281;HTU21D;63874;47.230;39.620;2024-01-30T04:41:24;-2.34;82.48
75281;HTU21D;63874;47.230;39.620;2024-01-30T04:43:52;-2.34;82.55
75281;HTU21D;63874;47.230;39.620;2024-01-30T04:46:19;-2.32;82.55
75281;HTU21D;63874;47.230;39.620;2024-01-30T04:48:45;-2.31;82.59
75281;HTU21D;63874;47.230;39.620;2024-01-30T04:51:12;-2.28;82.69
75281;HTU21D;63874;47.230;39.620;2024-01-30T04:53:38;-2.21;82.61
75281;HTU21D;63874;47.230;39.620;2024-01-30T04:56:05;-2.20;82.53
75281;HTU21D;63874;47.230;39.620;2024-01-30T04:58:31;-2.17;82.48
75281;HTU21D;63874;47.230;39.620;2024-01-30T05:00:56;-2.15;82.44
75281;HTU21D;63874;47.230;39.620;2024-01-30T05:03:22;-2.07;82.52
75281;HTU21D;63874;47.230;39.620;2024-01-30T05:05:49;-2.04;82.39
75281;HTU21D;63874;47.230;39.620;2024-01-30T05:08:15;-2.01;82.36
75281;HTU21D;63874;47.230;39.620;2024-01-30T05:10:41;-2.01;82.23
75281;HTU21D;63874;47.230;39.620;2024-01-30T05:13:07;-2.00;82.29
75281;HTU21D;63874;47.230;39.620;2024-01-30T05:15:34;-1.95;82.31
75281;HTU21D;63874;47.230;39.620;2024-01-30T05:17:59;-1.93;82.35
75281;HTU21D;63874;47.230;39.620;2024-01-30T05:20:26;-1.92;82.36
75281;HTU21D;63874;47.230;39.620;2024-01-30T05:22:54;-1.90;82.42
75281;HTU21D;63874;47.230;39.620;2024-01-30T05:25:20;-1.84;82.44
75281;HTU21D;63874;47.230;39.620;2024-01-30T05:27:46;-1.83;82.43
75281;HTU21D;63874;47.230;39.620;2024-01-30T05:30:13;-1.76;82.49
75281;HTU21D;63874;47.230;39.620;2024-01-30T05:32:40;-1.72;82.27
75281;HTU21D;63874;47.230;39.620;2024-01-30T05:35:05;-1.69;82.20
75281;HTU21D;63874;47.230;39.620;2024-01-30T05:37:33;-1.64;82.24
75281;HTU21D;63874;47.230;39.620;2024-01-30T05:40:00;-1.60;82.24
75281;HTU21D;63874;47.230;39.620;2024-01-30T05:42:25;-1.58;82.20
75281;HTU21D;63874;47.230;39.620;2024-01-30T05:44:52;-1.55;82.25
75281;HTU21D;63874;47.230;39.620;2024-01-30T05:47:18;-1.52;82.30
75281;HTU21D;63874;47.230;39.620;2024-01-30T05:49:44;-1.43;82.30
75281;HTU21D;63874;47.230;39.620;2024-01-30T05:52:10;-1.39;82.13
75281;HTU21D;63874;47.230;39.620;2024-01-30T05:54:37;-1.35;81.99
75281;HTU21D;63874;47.230;39.620;2024-01-30T05:57:04;-1.32;81.91
75281;HTU21D;63874;47.230;39.620;2024-01-30T05:59:30;-1.27;81.89
75281;HTU21D;63874;47.230;39.620;2024-01-30T06:01:55;-1.24;81.85
75281;HTU21D;63874;47.230;39.620;2024-01-30T06:04:21;-1.19;81.84
75281;HTU21D;63874;47.230;39.620;2024-01-30T06:06:48;-1.16;81.84
75281;HTU21D;63874;47.230;39.620;2024-01-30T06:09:16;-1.11;81.99
75281;HTU21D;63874;47.230;39.620;2024-01-30T06:11:41;-1.02;82.01
75281;HTU21D;63874;47.230;39.620;2024-01-30T06:14:07;-0.94;81.88
75281;HTU21D;63874;47.230;39.620;2024-01-30T06:16:36;-0.87;81.68
75281;HTU21D;63874;47.230;39.620;2024-01-30T06:19:03;-0.82;81.52
75281;HTU21D;63874;47.230;39.620;2024-01-30T06:21:28;-0.81;81.36
75281;HTU21D;63874;47.230;39.620;2024-01-30T06:23:54;-0.82;81.27
75281;HTU21D;63874;47.230;39.620;2024-01-30T06:26:21;-0.81;81.30
75281;HTU21D;63874;47.230;39.620;2024-01-30T06:28:49;-0.84;81.24
75281;HTU21D;63874;47.230;39.620;2024-01-30T06:31:15;-0.85;81.21
75281;HTU21D;63874;47.230;39.620;2024-01-30T06:33:41;-0.81;81.28
75281;HTU21D;63874;47.230;39.620;2024-01-30T06:36:08;-0.79;81.18
75281;HTU21D;63874;47.230;39.620;2024-01-30T06:38:35;-0.74;81.05
75281;HTU21D;63874;47.230;39.620;2024-01-30T06:41:01;-0.72;81.04
75281;HTU21D;63874;47.230;39.620;2024-01-30T06:43:27;-0.68;80.95
75281;HTU21D;63874;47.230;39.620;2024-01-30T06:45:52;-0.70;80.91
75281;HTU21D;63874;47.230;39.620;2024-01-30T06:48:18;-0.71;80.93
75281;HTU21D;63874;47.230;39.620;2024-01-30T06:50:44;-0.69;81.02
75281;HTU21D;63874;47.230;39.620;2024-01-30T06:53:11;-0.65;80.94
75281;HTU21D;63874;47.230;39.620;2024-01-30T06:55:37;-0.60;80.89
75281;HTU21D;63874;47.230;39.620;2024-01-30T06:58:03;-0.57;80.85
75281;HTU21D;63874;47.230;39.620;2024-01-30T07:00:29;-0.54;80.96
75281;HTU21D;63874;47.230;39.620;2024-01-30T07:02:55;-0.50;80.75
75281;HTU21D;63874;47.230;39.620;2024-01-30T07:05:22;-0.51;80.55
75281;HTU21D;63874;47.230;39.620;2024-01-30T07:07:48;-0.54;80.56
75281;HTU21D;63874;47.230;39.620;2024-01-30T07:10:14;-0.54;80.51
75281;HTU21D;63874;47.230;39.620;2024-01-30T07:12:43;-0.53;80.52
75281;HTU21D;63874;47.230;39.620;2024-01-30T07:15:09;-0.45;80.52
75281;HTU21D;63874;47.230;39.620;2024-01-30T07:17:35;-0.40;80.53
75281;HTU21D;63874;47.230;39.620;2024-01-30T07:20:02;-0.41;80.25
75281;HTU21D;63874;47.230;39.620;2024-01-30T07:22:29;-0.41;80.23
75281;HTU21D;63874;47.230;39.620;2024-01-30T07:24:58;-0.43;80.12
75281;HTU21D;63874;47.230;39.620;2024-01-30T07:27:24;-0.43;80.11
75281;HTU21D;63874;47.230;39.620;2024-01-30T07:29:52;-0.45;80.14
75281;HTU21D;63874;47.230;39.620;2024-01-30T07:32:18;-0.47;79.69
75281;HTU21D;63874;47.230;39.620;2024-01-30T07:34:45;-0.52;79.69
75281;HTU21D;63874;47.230;39.620;2024-01-30T07:37:12;-0.53;79.73
75281;HTU21D;63874;47.230;39.620;2024-01-30T07:39:41;-0.51;79.78
75281;HTU21D;63874;47.230;39.620;2024-01-30T07:42:07;-0.52;79.69
75281;HTU21D;63874;47.230;39.620;2024-01-30T07:44:33;-0.52;79.86
75281;HTU21D;63874;47.230;39.620;2024-01-30T07:46:58;-0.49;79.78
75281;HTU21D;63874;47.230;39.620;2024-01-30T07:49:25;-0.50;79.72
75281;HTU21D;63874;47.230;39.620;2024-01-30T07:51:52;-0.52;79.43
75281;HTU21D;63874;47.230;39.620;2024-01-30T07:54:18;-0.54;79.40
75281;HTU21D;63874;47.230;39.620;2024-01-30T07:56:44;-0.57;79.53
75281;HTU21D;63874;47.230;39.620;2024-01-30T07:59:11;-0.57;79.62
75281;HTU21D;63874;47.230;39.620;2024-01-30T08:01:38;-0.53;79.75
75281;HTU21D;63874;47.230;39.620;2024-01-30T08:04:05;-0.49;79.78
75281;HTU21D;63874;47.230;39.620;2024-01-30T08:06:32;-0.45;79.64
75281;HTU21D;63874;47.230;39.620;2024-01-30T08:08:59;-0.50;79.54
75281;HTU21D;63874;47.230;39.620;2024-01-30T08:11:24;-0.47;79.26
75281;HTU21D;63874;47.230;39.620;2024-01-30T08:13:53;-0.51;79.26
75281;HTU21D;63874;47.230;39.620;2024-01-30T08:16:19;-0.49;79.44
75281;HTU21D;63874;47.230;39.620;2024-01-30T08:18:46;-0.44;79.53
75281;HTU21D;63874;47.230;39.620;2024-01-30T08:21:12;-0.43;79.21
75281;HTU21D;63874;47.230;39.620;2024-01-30T08:23:38;-0.41;79.01
75281;HTU21D;63874;47.230;39.620;2024-01-30T08:26:04;-0.45;78.98
75281;HTU21D;63874;47.230;39.620;2024-01-30T08:28:32;-0.46;79.13
75281;HTU21D;63874;47.230;39.620;2024-01-30T08:30:59;-0.45;79.09
75281;HTU21D;63874;47.230;39.620;2024-01-30T08:33:26;-0.53;79.00
75281;HTU21D;63874;47.230;39.620;2024-01-30T08:35:52;-0.59;79.27
75281;HTU21D;63874;47.230;39.620;2024-01-30T08:38:21;-0.60;79.57
75281;HTU21D;63874;47.230;39.620;2024-01-30T08:40:47;-0.52;79.63
75281;HTU21D;63874;47.230;39.620;2024-01-30T08:43:13;-0.55;79.43
75281;HTU21D;63874;47.230;39.620;2024-01-30T08:45:38;-0.58;79.33
75281;HTU21D;63874;47.230;39.620;2024-01-30T08:48:04;-0.59;79.43
75281;HTU21D;63874;47.230;39.620;2024-01-30T08:50:31;-0.59;79.53
75281;HTU21D;63874;47.230;39.620;2024-01-30T08:52:56;-0.60;79.65
75281;HTU21D;63874;47.230;39.620;2024-01-30T08:55:22;-0.64;79.58
75281;HTU21D;63874;47.230;39.620;2024-01-30T08:57:48;-0.62;79.48
75281;HTU21D;63874;47.230;39.620;2024-01-30T09:00:15;-0.67;79.54
75281;HTU21D;63874;47.230;39.620;2024-01-30T09:02:41;-0.61;79.77
75281;HTU21D;63874;47.230;39.620;2024-01-30T09:05:07;-0.53;80.00
75281;HTU21D;63874;47.230;39.620;2024-01-30T09:07:33;-0.41;79.88
75281;HTU21D;63874;47.230;39.620;2024-01-30T09:09:59;-0.37;79.82
75281;HTU21D;63874;47.230;39.620;2024-01-30T09:12:24;-0.31;79.80
75281;HTU21D;63874;47.230;39.620;2024-01-30T09:14:50;-0.24;79.49
75281;HTU21D;63874;47.230;39.620;2024-01-30T09:17:16;-0.24;79.41
75281;HTU21D;63874;47.230;39.620;2024-01-30T09:19:42;-0.23;79.47
75281;HTU21D;63874;47.230;39.620;2024-01-30T09:22:07;-0.21;79.56
75281;HTU21D;63874;47.230;39.620;2024-01-30T09:24:33;-0.17;79.55
75281;HTU21D;63874;47.230;39.620;2024-01-30T09:27:01;-0.14;79.54
75281;HTU21D;63874;47.230;39.620;2024-01-30T09:29:27;-0.11;79.45
75281;HTU21D;63874;47.230;39.620;2024-01-30T09:31:53;-0.07;79.33
75281;HTU21D;63874;47.230;39.620;2024-01-30T09:34:19;-0.05;79.17
75281;HTU21D;63874;47.230;39.620;2024-01-30T09:36:46;-0.02;78.95
75281;HTU21D;63874;47.230;39.620;2024-01-30T09:39:12;-0.06;78.87
75281;HTU21D;63874;47.230;39.620;2024-01-30T09:41:49;-0.05;78.98
75281;HTU21D;63874;47.230;39.620;2024-01-30T09:44:19;-0.03;78.75
75281;HTU21D;63874;47.230;39.620;2024-01-30T09:46:47;-0.02;78.72
75281;HTU21D;63874;47.230;39.620;2024-01-30T09:49:14;-0.06;78.73
75281;HTU21D;63874;47.230;39.620;2024-01-30T09:51:41;-0.07;78.94
75281;HTU21D;63874;47.230;39.620;2024-01-30T09:54:07;-0.06;79.14
75281;HTU21D;63874;47.230;39.620;2024-01-30T09:56:33;0.01;79.03
75281;HTU21D;63874;47.230;39.620;2024-01-30T09:58:59;-0.02;78.82
75281;HTU21D;63874;47.230;39.620;2024-01-30T10:01:25;-0.01;78.72
75281;HTU21D;63874;47.230;39.620;2024-01-30T10:03:51;-0.08;78.37
75281;HTU21D;63874;47.230;39.620;2024-01-30T10:06:19;-0.12;78.56
75281;HTU21D;63874;47.230;39.620;2024-01-30T10:08:46;-0.13;78.35
75281;HTU21D;63874;47.230;39.620;2024-01-30T10:11:12;-0.20;78.30
75281;HTU21D;63874;47.230;39.620;2024-01-30T10:13:38;-0.21;78.39
75281;HTU21D;63874;47.230;39.620;2024-01-30T10:16:04;-0.25;78.55
75281;HTU21D;63874;47.230;39.620;2024-01-30T10:18:32;-0.22;78.86
75281;HTU21D;63874;47.230;39.620;2024-01-30T10:20:59;-0.17;78.99
75281;HTU21D;63874;47.230;39.620;2024-01-30T10:23:25;-0.09;79.00
75281;HTU21D;63874;47.230;39.620;2024-01-30T10:25:52;-0.11;78.73
75281;HTU21D;63874;47.230;39.620;2024-01-30T10:28:18;-0.14;78.66
75281;HTU21D;63874;47.230;39.620;2024-01-30T10:30:47;-0.12;78.89
75281;HTU21D;63874;47.230;39.620;2024-01-30T10:33:23;-0.12;78.88
75281;HTU21D;63874;47.230;39.620;2024-01-30T10:36:02;-0.13;78.85
75281;HTU21D;63874;47.230;39.620;2024-01-30T10:38:28;-0.13;78.97
75281;HTU21D;63874;47.230;39.620;2024-01-30T10:41:00;-0.11;79.06
75281;HTU21D;63874;47.230;39.620;2024-01-30T10:43:32;-0.06;79.09
75281;HTU21D;63874;47.230;39.620;2024-01-30T10:46:10;0.02;78.92
75281;HTU21D;63874;47.230;39.620;2024-01-30T10:48:37;0.08;78.90
75281;HTU21D;63874;47.230;39.620;2024-01-30T10:51:08;0.14;78.85
75281;HTU21D;63874;47.230;39.620;2024-01-30T10:53:35;0.21;78.82
75281;HTU21D;63874;47.230;39.620;2024-01-30T10:56:02;0.28;78.49
75281;HTU21D;63874;47.230;39.620;2024-01-30T10:58:29;0.33;78.49
75281;HTU21D;63874;47.230;39.620;2024-01-30T11:00:55;0.36;78.35
75281;HTU21D;63874;47.230;39.620;2024-01-30T11:03:22;0.38;78.22
75281;HTU21D;63874;47.230;39.620;2024-01-30T11:05:51;0.40;77.78
75281;HTU21D;63874;47.230;39.620;2024-01-30T11:08:23;0.40;77.04
75281;HTU21D;63874;47.230;39.620;2024-01-30T11:10:54;0.34;77.23
75281;HTU21D;63874;47.230;39.620;2024-01-30T11:13:19;0.21;77.30
75281;HTU21D;63874;47.230;39.620;2024-01-30T11:15:47;0.16;77.30
75281;HTU21D;63874;47.230;39.620;2024-01-30T11:18:22;0.10;77.55
75281;HTU21D;63874;47.230;39.620;2024-01-30T11:20:48;0.10;77.69
75281;HTU21D;63874;47.230;39.620;2024-01-30T11:23:14;0.06;77.79
75281;HTU21D;63874;47.230;39.620;2024-01-30T11:25:39;0.06;77.98
75281;HTU21D;63874;47.230;39.620;2024-01-30T11:28:05;0.06;78.03
75281;HTU21D;63874;47.230;39.620;2024-01-30T11:30:31;0.10;78.21
75281;HTU21D;63874;47.230;39.620;2024-01-30T11:32:59;0.16;78.23
75281;HTU21D;63874;47.230;39.620;2024-01-30T11:35:25;0.22;78.07
75281;HTU21D;63874;47.230;39.620;2024-01-30T11:37:52;0.25;77.81
75281;HTU21D;63874;47.230;39.620;2024-01-30T11:40:18;0.23;77.60
75281;HTU21D;63874;47.230;39.620;2024-01-30T11:42:44;0.22;77.63
75281;HTU21D;63874;47.230;39.620;2024-01-30T11:45:11;0.21;77.93
75281;HTU21D;63874;47.230;39.620;2024-01-30T11:47:37;0.21;77.82
75281;HTU21D;63874;47.230;39.620;2024-01-30T11:50:03;0.18;77.76
75281;HTU21D;63874;47.230;39.620;2024-01-30T11:52:33;0.13;77.89
75281;HTU21D;63874;47.230;39.620;2024-01-30T11:55:00;0.14;78.09
75281;HTU21D;63874;47.230;39.620;2024-01-30T11:57:28;0.16;77.92
75281;HTU21D;63874;47.230;39.620;2024-01-30T11:59:54;0.18;78.03
75281;HTU21D;63874;47.230;39.620;2024-01-30T12:02:19;0.19;77.78
75281;HTU21D;63874;47.230;39.620;2024-01-30T12:04:47;0.16;77.65
75281;HTU21D;63874;47.230;39.620;2024-01-30T12:07:13;0.12;77.66
75281;HTU21D;63874;47.230;39.620;2024-01-30T12:09:41;0.07;77.82
75281;HTU21D;63874;47.230;39.620;2024-01-30T12:12:07;0.05;77.79
75281;HTU21D;63874;47.230;39.620;2024-01-30T12:14:39;0.04;78.01
75281;HTU21D;63874;47.230;39.620;2024-01-30T12:17:05;0.08;78.10
75281;HTU21D;63874;47.230;39.620;2024-01-30T12:19:38;0.09;78.01
75281;HTU21D;63874;47.230;39.620;2024-01-30T12:22:13;0.09;77.95
75281;HTU21D;63874;47.230;39.620;2024-01-30T12:24:39;0.08;77.89
75281;HTU21D;63874;47.230;39.620;2024-01-30T12:27:05;0.07;77.80
75281;HTU21D;63874;47.230;39.620;2024-01-30T12:29:34;0.03;77.79
75281;HTU21D;63874;47.230;39.620;2024-01-30T12:32:00;0.01;77.95
75281;HTU21D;63874;47.230;39.620;2024-01-30T12:34:26;0.01;77.88
75281;HTU21D;63874;47.230;39.620;2024-01-30T12:36:51;-0.02;77.96
75281;HTU21D;63874;47.230;39.620;2024-01-30T12:39:17;-0.05;78.05
75281;HTU21D;63874;47.230;39.620;2024-01-30T12:41:44;-0.03;78.09
75281;HTU21D;63874;47.230;39.620;2024-01-30T12:44:10;-0.07;78.13
75281;HTU21D;63874;47.230;39.620;2024-01-30T12:46:39;-0.06;78.25
75281;HTU21D;63874;47.230;39.620;2024-01-30T12:49:05;-0.07;78.24
75281;HTU21D;63874;47.230;39.620;2024-01-30T12:51:33;-0.06;78.34
75281;HTU21D;63874;47.230;39.620;2024-01-30T12:54:03;-0.08;78.30
75281;HTU21D;63874;47.230;39.620;2024-01-30T12:56:29;-0.08;78.29
75281;HTU21D;63874;47.230;39.620;2024-01-30T12:58:55;-0.08;78.36
75281;HTU21D;63874;47.230;39.620;2024-01-30T13:01:21;-0.08;78.27
75281;HTU21D;63874;47.230;39.620;2024-01-30T13:03:47;-0.10;78.23
75281;HTU21D;63874;47.230;39.620;2024-01-30T13:06:13;-0.09;78.29
75281;HTU21D;63874;47.230;39.620;2024-01-30T13:08:42;-0.10;78.25
75281;HTU21D;63874;47.230;39.620;2024-01-30T13:11:08;-0.12;78.29
75281;HTU21D;63874;47.230;39.620;2024-01-30T13:13:34;-0.10;78.36
75281;HTU21D;63874;47.230;39.620;2024-01-30T13:16:01;-0.12;78.33
75281;HTU21D;63874;47.230;39.620;2024-01-30T13:18:29;-0.14;78.37
75281;HTU21D;63874;47.230;39.620;2024-01-30T13:20:54;-0.12;78.38
75281;HTU21D;63874;47.230;39.620;2024-01-30T13:23:20;-0.12;78.30
75281;HTU21D;63874;47.230;39.620;2024-01-30T13:25:46;-0.14;78.23
75281;HTU21D;63874;47.230;39.620;2024-01-30T13:28:11;-0.16;78.24
75281;HTU21D;63874;47.230;39.620;2024-01-30T13:30:37;-0.17;78.36
75281;HTU21D;63874;47.230;39.620;2024-01-30T13:33:03;-0.19;78.43
75281;HTU21D;63874;47.230;39.620;2024-01-30T13:35:29;-0.17;78.38
75281;HTU21D;63874;47.230;39.620;2024-01-30T13:37:54;-0.19;78.41
75281;HTU21D;63874;47.230;39.620;2024-01-30T13:40:23;-0.17;78.34
75281;HTU21D;63874;47.230;39.620;2024-01-30T13:42:48;-0.17;78.37
75281;HTU21D;63874;47.230;39.620;2024-01-30T13:45:14;-0.17;78.36
75281;HTU21D;63874;47.230;39.620;2024-01-30T13:47:41;-0.16;78.30
75281;HTU21D;63874;47.230;39.620;2024-01-30T13:50:07;-0.21;78.19
75281;HTU21D;63874;47.230;39.620;2024-01-30T13:52:39;-0.24;78.22
75281;HTU21D;63874;47.230;39.620;2024-01-30T13:55:04;-0.28;78.29
75281;HTU21D;63874;47.230;39.620;2024-01-30T13:57:32;-0.30;78.39
75281;HTU21D;63874;47.230;39.620;2024-01-30T14:00:04;-0.36;78.48
75281;HTU21D;63874;47.230;39.620;2024-01-30T14:02:40;-0.38;78.62
75281;HTU21D;63874;47.230;39.620;2024-01-30T14:05:07;-0.39;78.76
75281;HTU21D;63874;47.230;39.620;2024-01-30T14:07:35;-0.40;78.82
75281;HTU21D;63874;47.230;39.620;2024-01-30T14:10:01;-0.39;78.80
75281;HTU21D;63874;47.230;39.620;2024-01-30T14:12:26;-0.41;78.78
75281;HTU21D;63874;47.230;39.620;2024-01-30T14:14:52;-0.47;78.65
75281;HTU21D;63874;47.230;39.620;2024-01-30T14:17:18;-0.57;78.70
75281;HTU21D;63874;47.230;39.620;2024-01-30T14:19:45;-0.68;78.75
75281;HTU21D;63874;47.230;39.620;2024-01-30T14:22:11;-0.81;79.01
75281;HTU21D;63874;47.230;39.620;2024-01-30T14:24:36;-0.87;79.24
75281;HTU21D;63874;47.230;39.620;2024-01-30T14:27:03;-0.97;79.27
75281;HTU21D;63874;47.230;39.620;2024-01-30T14:29:30;-1.02;79.53
75281;HTU21D;63874;47.230;39.620;2024-01-30T14:31:56;-1.09;79.67
75281;HTU21D;63874;47.230;39.620;2024-01-30T14:34:23;-1.11;79.79
75281;HTU21D;63874;47.230;39.620;2024-01-30T14:36:49;-1.13;79.91
75281;HTU21D;63874;47.230;39.620;2024-01-30T14:39:16;-1.20;80.04
75281;HTU21D;63874;47.230;39.620;2024-01-30T14:41:41;-1.24;80.08
75281;HTU21D;63874;47.230;39.620;2024-01-30T14:44:07;-1.27;80.17
75281;HTU21D;63874;47.230;39.620;2024-01-30T14:46:35;-1.30;80.24
75281;HTU21D;63874;47.230;39.620;2024-01-30T14:49:02;-1.36;80.33
75281;HTU21D;63874;47.230;39.620;2024-01-30T14:51:31;-1.39;80.55
75281;HTU21D;63874;47.230;39.620;2024-01-30T14:53:57;-1.40;80.63
75281;HTU21D;63874;47.230;39.620;2024-01-30T14:56:23;-1.42;80.78
75281;HTU21D;63874;47.230;39.620;2024-01-30T14:58:49;-1.39;80.78